Time;durP1;ratioP1;P1;durP2;ratioP2;P2;SDS_P1;SDS_P2;PMS_P1;PMS_P2;Temp;Humidity;BMP_temperature;BMP_pressure;BME280_temperature;BME280_humidity;BME280_pressure;Samples;Min_cycle;Max_cycle;Signal;HPM_P1;HPM_P2
2021/06/01 00:00:08;;;;;;;4.93;3.00;;;16.90;46.70;;;;;;4993849;28;20145;-75
2021/06/01 00:02:35;;;;;;;;;;;17.00;46.70;;;;;;4993524;28;20129;-78
2021/06/01 00:05:03;;;;;;;4.32;2.63;;;16.90;46.70;;;;;;5006960;28;20553;-79
2021/06/01 00:07:30;;;;;;;4.43;3.10;;;16.90;46.80;;;;;;4993908;28;20050;-79
2021/06/01 00:09:57;;;;;;;4.32;2.65;;;16.90;46.90;;;;;;4991459;28;20066;-79
2021/06/01 00:12:24;;;;;;;6.10;3.30;;;17.00;46.40;;;;;;5006738;28;20076;-80
2021/06/01 00:14:51;;;;;;;4.47;3.08;;;17.00;46.30;;;;;;4994062;28;20137;-79
2021/06/01 00:17:18;;;;;;;5.35;2.70;;;17.00;46.40;;;;;;4992918;28;20039;-75
2021/06/01 00:19:45;;;;;;;5.28;2.83;;;16.80;46.50;;;;;;4991828;28;20060;-78
2021/06/01 00:22:12;;;;;;;4.03;2.58;;;16.80;46.60;;;;;;4992202;28;20204;-77
2021/06/01 00:24:39;;;;;;;4.15;2.55;;;16.70;47.20;;;;;;4992320;28;20133;-75
2021/06/01 00:27:06;;;;;;;4.78;2.72;;;16.50;47.30;;;;;;4994141;28;20084;-74
2021/06/01 00:29:33;;;;;;;5.95;3.58;;;16.50;47.40;;;;;;4993421;28;20490;-76
2021/06/01 00:32:00;;;;;;;5.15;2.50;;;16.40;47.70;;;;;;4992766;28;20046;-77
2021/06/01 00:34:27;;;;;;;3.88;2.38;;;16.40;47.80;;;;;;4990739;28;20046;-77
2021/06/01 00:36:54;;;;;;;5.22;2.42;;;16.40;47.80;;;;;;4992870;28;20501;-74
2021/06/01 00:39:23;;;;;;;3.13;2.40;;;16.40;47.90;;;;;;4991294;28;20066;-77
2021/06/01 00:41:50;;;;;;;3.47;2.20;;;16.40;48.00;;;;;;4995013;28;20164;-77
2021/06/01 00:44:17;;;;;;;3.33;2.53;;;16.40;47.90;;;;;;4991977;28;20505;-78
2021/06/01 00:46:44;;;;;;;4.32;2.65;;;16.50;47.80;;;;;;4992811;28;20482;-77
2021/06/01 00:49:11;;;;;;;4.63;2.60;;;16.40;47.90;;;;;;4999721;28;20062;-77
2021/06/01 00:51:38;;;;;;;5.13;2.40;;;16.30;48.00;;;;;;4992666;28;20050;-78
2021/06/01 00:54:05;;;;;;;4.50;2.53;;;16.30;48.40;;;;;;4993281;28;20092;-74
2021/06/01 00:56:32;;;;;;;2.88;2.50;;;16.00;48.50;;;;;;4990492;28;20074;-75
2021/06/01 00:58:59;;;;;;;3.45;2.28;;;16.10;48.50;;;;;;4992584;28;20078;-76
2021/06/01 01:01:26;;;;;;;4.78;2.42;;;16.20;48.50;;;;;;4991634;28;20151;-77
2021/06/01 01:03:54;;;;;;;3.60;2.50;;;16.10;48.40;;;;;;4999082;28;20045;-77
2021/06/01 01:06:44;;;;;;;3.38;2.60;;;16.10;48.60;;;;;;4991390;28;20057;-78
2021/06/01 01:09:16;;;;;;;2.67;2.20;;;16.10;48.60;;;;;;4993527;28;20140;-74
2021/06/01 01:12:02;;;;;;;3.80;2.67;;;16.10;48.60;;;;;;4988856;28;20105;-76
2021/06/01 01:14:32;;;;;;;3.47;2.15;;;16.00;48.60;;;;;;4991804;28;20034;-77
2021/06/01 01:17:11;;;;;;;2.92;2.30;;;16.00;48.80;;;;;;4990802;28;20143;-77
2021/06/01 01:20:16;;;;;;;2.70;2.10;;;15.90;48.80;;;;;;4991128;28;20058;-79
2021/06/01 01:22:48;;;;;;;5.30;2.28;;;16.00;48.80;;;;;;4990755;28;20049;-76
2021/06/01 01:25:30;;;;;;;;;;;15.90;48.90;;;;;;4992792;28;20116;-74
2021/06/01 01:27:57;;;;;;;5.28;2.60;;;15.80;49.00;;;;;;4991182;28;20019;-77
2021/06/01 01:30:28;;;;;;;3.05;2.25;;;15.80;49.30;;;;;;4991807;28;20141;-78
2021/06/01 01:32:58;;;;;;;2.30;2.10;;;15.80;49.40;;;;;;4992154;28;20092;-74
2021/06/01 01:35:30;;;;;;;2.90;2.00;;;15.80;49.30;;;;;;4991302;28;20081;-77
2021/06/01 01:37:59;;;;;;;3.05;2.10;;;15.80;49.40;;;;;;5021907;28;20141;-75
2021/06/01 01:40:30;;;;;;;3.22;2.30;;;15.90;49.00;;;;;;4992797;28;20386;-78
2021/06/01 01:43:06;;;;;;;3.42;2.33;;;15.80;49.20;;;;;;4990041;28;20228;-78
2021/06/01 01:45:34;;;;;;;3.33;2.10;;;15.80;49.40;;;;;;4991239;28;20053;-75
2021/06/01 01:51:11;;;;;;;3.08;2.55;;;15.80;49.30;;;;;;5008234;28;20045;-77
2021/06/01 01:53:52;;;;;;;2.50;2.10;;;15.60;49.50;;;;;;5006246;28;20140;-77
2021/06/01 01:56:22;;;;;;;3.70;2.63;;;15.60;49.70;;;;;;5010376;28;20100;-77
2021/06/01 01:58:50;;;;;;;;;;;15.50;50.00;;;;;;5037979;28;20084;-78
2021/06/01 02:01:18;;;;;;;3.08;2.17;;;15.70;49.60;;;;;;5009008;28;19922;-78
2021/06/01 02:03:45;;;;;;;3.45;2.35;;;15.60;49.60;;;;;;5005431;28;20051;-77
2021/06/01 02:06:13;;;;;;;6.28;2.33;;;15.40;50.10;;;;;;5008011;28;20141;-78
2021/06/01 02:08:41;;;;;;;2.55;2.05;;;15.40;50.40;;;;;;5008253;28;20468;-78
2021/06/01 02:11:09;;;;;;;3.95;2.47;;;15.40;50.10;;;;;;5009329;28;20386;-77
2021/06/01 02:13:51;;;;;;;3.20;2.40;;;15.60;50.00;;;;;;5008908;28;20129;-77
2021/06/01 02:16:18;;;;;;;4.40;2.45;;;15.40;50.00;;;;;;5003922;28;20173;-77
2021/06/01 02:18:45;;;;;;;4.05;2.60;;;15.40;50.50;;;;;;5003690;28;20520;-79
2021/06/01 02:21:46;;;;;;;5.38;2.50;;;15.40;50.30;;;;;;4997309;28;20085;-77
2021/06/01 02:24:21;;;;;;;4.90;2.50;;;15.40;50.40;;;;;;5009776;28;20459;-74
2021/06/01 02:27:07;;;;;;;4.80;2.60;;;15.30;50.60;;;;;;5005293;28;20041;-77
2021/06/01 02:29:45;;;;;;;2.67;2.00;;;15.30;50.50;;;;;;5005486;28;20046;-77
2021/06/01 02:32:16;;;;;;;3.35;2.38;;;15.20;50.70;;;;;;5008884;28;20556;-77
2021/06/01 02:34:44;;;;;;;4.82;2.65;;;15.50;50.40;;;;;;5007528;28;20244;-77
2021/06/01 02:37:12;;;;;;;3.58;2.55;;;15.40;50.30;;;;;;5003089;28;20133;-77
2021/06/01 02:39:40;;;;;;;3.20;2.50;;;15.30;50.40;;;;;;5008747;28;20042;-77
2021/06/01 02:42:08;;;;;;;3.58;2.47;;;15.20;50.70;;;;;;5006864;28;20085;-74
2021/06/01 02:44:35;;;;;;;4.55;2.63;;;15.20;50.70;;;;;;5008725;28;20052;-78
2021/06/01 02:47:05;;;;;;;4.28;2.60;;;15.40;50.30;;;;;;5004459;28;20080;-76
2021/06/01 02:49:34;;;;;;;5.63;2.40;;;15.40;50.60;;;;;;5004884;28;20041;-77
2021/06/01 02:52:02;;;;;;;4.43;2.60;;;15.30;51.10;;;;;;5013338;28;20042;-77
2021/06/01 02:54:29;;;;;;;3.22;2.40;;;15.30;51.00;;;;;;5006336;28;20074;-75
2021/06/01 02:56:57;;;;;;;3.38;2.65;;;15.20;51.10;;;;;;5010497;28;20508;-76
2021/06/01 02:59:25;;;;;;;4.55;2.70;;;15.10;51.60;;;;;;5011830;28;20136;-76
2021/06/01 03:01:51;;;;;;;6.75;2.70;;;15.00;51.60;;;;;;5010913;28;20536;-77
2021/06/01 03:04:18;;;;;;;4.85;2.70;;;15.00;52.10;;;;;;5008980;28;20124;-77
2021/06/01 03:06:45;;;;;;;4.63;2.85;;;14.90;51.90;;;;;;5006643;28;20081;-77
2021/06/01 03:09:12;;;;;;;4.00;2.80;;;14.80;52.70;;;;;;5009909;28;20085;-77
2021/06/01 03:11:41;;;;;;;5.20;2.95;;;14.90;52.70;;;;;;5010623;28;20100;-78
2021/06/01 03:14:08;;;;;;;3.65;2.80;;;14.70;53.00;;;;;;5009739;28;20057;-76
2021/06/01 03:16:35;;;;;;;4.32;2.90;;;14.60;53.10;;;;;;5007871;28;20169;-77
2021/06/01 03:19:02;;;;;;;3.92;2.67;;;14.60;53.60;;;;;;5010955;28;20042;-78
2021/06/01 03:21:30;;;;;;;5.65;2.80;;;14.60;54.00;;;;;;5008366;28;20077;-77
2021/06/01 03:23:57;;;;;;;7.35;3.20;;;14.60;53.50;;;;;;5011525;28;20049;-77
2021/06/01 03:26:24;;;;;;;4.40;3.15;;;14.40;53.80;;;;;;5011522;28;20092;-78
2021/06/01 03:28:51;;;;;;;6.05;3.15;;;14.40;53.90;;;;;;5009982;28;20073;-78
2021/06/01 03:31:18;;;;;;;5.38;3.20;;;14.20;54.30;;;;;;5007951;28;20095;-77
2021/06/01 03:33:46;;;;;;;7.13;2.92;;;14.20;54.80;;;;;;5011818;28;20049;-77
2021/06/01 03:36:12;;;;;;;5.15;3.20;;;14.10;54.60;;;;;;5012264;28;20124;-77
2021/06/01 03:38:39;;;;;;;3.97;3.03;;;14.10;54.70;;;;;;5007846;28;20136;-77
2021/06/01 03:41:06;;;;;;;6.90;2.92;;;14.20;54.70;;;;;;5011418;28;20057;-77
2021/06/01 03:43:33;;;;;;;8.25;3.30;;;14.20;54.60;;;;;;5013363;28;20129;-78
2021/06/01 03:46:00;;;;;;;4.28;3.20;;;14.10;54.60;;;;;;5010167;28;20139;-77
2021/06/01 03:48:28;;;;;;;4.80;3.00;;;14.10;54.70;;;;;;5011337;28;20046;-77
2021/06/01 03:50:54;;;;;;;4.57;2.65;;;14.10;54.90;;;;;;5010594;28;20081;-77
2021/06/01 03:53:21;;;;;;;4.45;2.90;;;14.20;54.80;;;;;;5012715;28;20117;-75
2021/06/01 03:55:48;;;;;;;6.70;2.88;;;14.20;54.70;;;;;;5005805;28;20131;-77
2021/06/01 03:58:16;;;;;;;4.35;3.20;;;14.10;54.70;;;;;;5012207;28;20046;-78
2021/06/01 04:00:43;;;;;;;7.03;3.20;;;14.10;55.00;;;;;;5010061;28;20137;-77
2021/06/01 04:03:10;;;;;;;5.20;2.88;;;14.10;54.90;;;;;;5006236;28;20078;-78
2021/06/01 04:05:36;;;;;;;7.05;3.85;;;14.20;55.00;;;;;;5012312;28;20081;-77
2021/06/01 04:08:05;;;;;;;7.57;3.53;;;14.20;54.90;;;;;;5009378;28;20588;-78
2021/06/01 04:10:33;;;;;;;4.68;3.40;;;14.30;54.80;;;;;;5010744;28;20092;-77
2021/06/01 04:13:00;;;;;;;6.20;3.10;;;14.30;54.70;;;;;;5007897;28;20091;-77
2021/06/01 04:15:26;;;;;;;5.50;3.13;;;14.40;55.10;;;;;;5010969;28;20045;-77
2021/06/01 04:17:53;;;;;;;6.90;3.22;;;14.50;54.40;;;;;;5004269;28;20045;-77
2021/06/01 04:20:21;;;;;;;8.65;3.17;;;14.70;53.80;;;;;;5008110;28;20549;-74
2021/06/01 04:22:49;;;;;;;6.47;3.28;;;14.80;53.50;;;;;;5005770;28;20054;-77
2021/06/01 04:25:17;;;;;;;5.05;2.95;;;14.80;53.60;;;;;;5004995;28;20057;-77
2021/06/01 04:27:44;;;;;;;5.47;3.03;;;14.90;53.20;;;;;;5010017;28;20484;-78
2021/06/01 04:30:12;;;;;;;4.28;2.78;;;15.00;53.10;;;;;;5011282;28;20084;-76
2021/06/01 04:32:39;;;;;;;6.72;2.78;;;14.90;53.10;;;;;;5008100;28;20471;-77
2021/06/01 04:35:07;;;;;;;4.28;3.00;;;14.60;53.80;;;;;;5009201;28;20054;-77
2021/06/01 04:37:33;;;;;;;4.40;2.78;;;14.40;54.10;;;;;;5008470;28;20049;-77
2021/06/01 04:40:01;;;;;;;7.75;2.53;;;14.40;54.20;;;;;;5008903;28;20641;-77
2021/06/01 04:42:28;;;;;;;5.32;2.90;;;14.40;54.40;;;;;;5009663;28;20492;-77
2021/06/01 04:44:55;;;;;;;19.67;3.20;;;14.60;54.60;;;;;;5012167;28;20065;-77
2021/06/01 04:47:22;;;;;;;5.72;3.05;;;14.70;54.30;;;;;;5005971;28;20057;-77
2021/06/01 04:49:49;;;;;;;8.73;2.50;;;15.00;53.80;;;;;;5005562;28;20082;-78
2021/06/01 04:52:16;;;;;;;5.78;2.72;;;15.40;53.20;;;;;;5008537;28;20500;-78
2021/06/01 04:54:43;;;;;;;6.95;2.88;;;15.60;52.60;;;;;;5006435;28;20077;-79
2021/06/01 04:57:10;;;;;;;3.53;2.30;;;15.90;52.10;;;;;;5009568;28;20133;-78
2021/06/01 04:59:37;;;;;;;4.40;2.95;;;16.30;51.00;;;;;;5004303;28;20125;-79
2021/06/01 05:02:05;;;;;;;3.72;2.53;;;16.60;50.90;;;;;;5018650;28;20099;-78
2021/06/01 05:04:32;;;;;;;3.30;2.30;;;16.90;50.30;;;;;;5007643;28;20081;-78
2021/06/01 05:06:59;;;;;;;6.97;2.67;;;17.30;49.30;;;;;;5010517;28;20089;-78
2021/06/01 05:09:26;;;;;;;3.40;2.85;;;17.60;48.50;;;;;;5024041;28;20130;-77
2021/06/01 05:11:53;;;;;;;22.48;2.70;;;18.20;46.90;;;;;;5001296;28;20046;-70
2021/06/01 05:14:21;;;;;;;4.35;2.97;;;18.90;46.40;;;;;;5014640;28;20049;-70
2021/06/01 05:16:47;;;;;;;8.65;3.85;;;19.50;46.40;;;;;;5009282;28;20748;-71
2021/06/01 05:19:14;;;;;;;3.72;2.90;;;20.10;45.20;;;;;;5008806;28;20619;-71
2021/06/01 05:21:41;;;;;;;4.65;3.17;;;20.50;44.20;;;;;;5002714;28;20508;-71
2021/06/01 05:24:10;;;;;;;3.72;2.90;;;21.00;44.10;;;;;;5006017;28;20097;-71
2021/06/01 05:26:37;;;;;;;4.25;2.40;;;21.90;43.40;;;;;;5003398;28;20070;-71
2021/06/01 05:29:04;;;;;;;4.75;2.17;;;21.90;42.40;;;;;;5008660;28;20046;-70
2021/06/01 05:31:43;;;;;;;3.63;2.80;;;20.50;42.50;;;;;;5008956;28;20066;-71
2021/06/01 05:34:11;;;;;;;8.50;2.67;;;22.00;42.50;;;;;;5011725;28;20042;-71
2021/06/01 05:36:39;;;;;;;8.25;2.60;;;20.10;42.10;;;;;;5009646;28;20402;-71
2021/06/01 05:39:11;;;;;;;13.30;3.15;;;19.60;43.60;;;;;;5001337;28;20129;-70
2021/06/01 05:41:38;;;;;;;7.50;3.15;;;18.30;45.10;;;;;;5009221;28;20104;-71
2021/06/01 05:44:05;;;;;;;10.73;3.30;;;18.10;46.30;;;;;;5007649;28;20092;-70
2021/06/01 05:46:33;;;;;;;16.95;3.88;;;17.60;47.00;;;;;;5004270;28;20101;-70
2021/06/01 05:49:02;;;;;;;10.02;3.60;;;16.90;48.00;;;;;;5007295;28;20543;-70
2021/06/01 05:51:35;;;;;;;18.63;4.00;;;17.10;48.10;;;;;;5009647;28;20092;-71
2021/06/01 05:54:07;;;;;;;22.63;4.00;;;17.00;47.90;;;;;;5007389;28;20382;-71
2021/06/01 05:56:35;;;;;;;17.63;3.85;;;16.90;48.40;;;;;;5006969;28;20116;-71
2021/06/01 05:59:04;;;;;;;16.02;3.42;;;16.80;48.80;;;;;;5006357;28;20085;-71
2021/06/01 06:01:32;;;;;;;10.05;2.97;;;16.90;49.30;;;;;;5007550;28;20361;-70
2021/06/01 06:04:01;;;;;;;9.75;3.33;;;16.90;49.40;;;;;;5009418;28;20061;-78
2021/06/01 06:06:27;;;;;;;11.43;4.03;;;16.90;49.60;;;;;;5009712;28;20088;-73
2021/06/01 06:08:54;;;;;;;13.57;3.22;;;17.10;49.00;;;;;;5006432;28;20131;-78
2021/06/01 06:11:21;;;;;;;15.63;3.85;;;17.60;48.90;;;;;;5009715;28;20132;-77
2021/06/01 06:13:48;;;;;;;11.82;3.28;;;17.60;48.10;;;;;;5005878;28;20119;-77
2021/06/01 06:16:19;;;;;;;18.55;6.07;;;17.70;47.90;;;;;;5009966;28;20077;-77
2021/06/01 06:18:57;;;;;;;11.85;3.58;;;17.90;47.50;;;;;;5007827;28;20041;-77
2021/06/01 06:21:24;;;;;;;6.43;3.05;;;18.00;47.10;;;;;;5007610;28;20588;-77
2021/06/01 06:23:51;;;;;;;5.53;2.67;;;17.80;47.70;;;;;;5003358;28;20081;-71
2021/06/01 06:26:18;;;;;;;8.05;2.75;;;17.70;47.80;;;;;;5005565;28;20085;-71
2021/06/01 06:28:45;;;;;;;14.32;3.35;;;18.00;47.50;;;;;;5007148;28;20088;-71
2021/06/01 06:31:12;;;;;;;10.10;3.50;;;18.10;47.20;;;;;;5006054;28;20070;-71
2021/06/01 06:33:40;;;;;;;8.07;2.83;;;18.00;47.90;;;;;;5008078;28;20049;-71
2021/06/01 06:36:07;;;;;;;5.70;2.95;;;18.90;48.00;;;;;;5003761;28;20076;-71
2021/06/01 06:38:34;;;;;;;11.10;2.85;;;21.40;43.70;;;;;;5005186;28;20077;-71
2021/06/01 06:41:12;;;;;;;9.23;2.90;;;22.30;41.70;;;;;;5009461;28;20537;-71
2021/06/01 06:43:46;;;;;;;11.27;2.85;;;21.70;41.90;;;;;;5008292;28;20461;-71
2021/06/01 06:46:16;;;;;;;5.20;2.60;;;21.50;41.70;;;;;;5005275;28;20093;-71
2021/06/01 06:48:43;;;;;;;4.82;2.88;;;22.70;40.60;;;;;;5020583;28;20140;-71
2021/06/01 06:51:13;;;;;;;5.43;2.72;;;21.10;40.80;;;;;;5004872;28;20478;-71
2021/06/01 06:53:51;;;;;;;4.22;2.35;;;20.20;42.60;;;;;;5005842;28;20066;-71
2021/06/01 06:56:20;;;;;;;6.75;2.78;;;21.00;42.70;;;;;;5008469;28;20046;-71
2021/06/01 06:58:48;;;;;;;6.82;2.70;;;20.50;43.40;;;;;;5007989;28;20042;-72
2021/06/01 07:01:16;;;;;;;6.95;2.40;;;20.20;43.70;;;;;;5004642;28;20081;-72
2021/06/01 07:03:43;;;;;;;5.95;2.10;;;19.60;44.50;;;;;;5004722;28;20578;-71
2021/06/01 07:06:10;;;;;;;5.10;2.00;;;19.50;44.90;;;;;;5004496;28;20108;-70
2021/06/01 07:08:37;;;;;;;4.22;2.05;;;19.30;44.20;;;;;;5001108;28;20121;-70
2021/06/01 07:11:04;;;;;;;3.55;2.00;;;19.10;44.10;;;;;;5007946;28;20444;-71
2021/06/01 07:13:40;;;;;;;2.70;2.15;;;19.20;43.70;;;;;;5006152;28;20084;-71
2021/06/01 07:16:08;;;;;;;11.27;5.45;;;19.30;44.50;;;;;;5018098;28;21157;-71
2021/06/01 07:18:38;;;;;;;3.17;2.05;;;19.30;44.10;;;;;;5000736;28;20052;-72
2021/06/01 07:21:06;;;;;;;4.40;2.20;;;19.10;44.50;;;;;;5007921;28;20085;-71
2021/06/01 07:23:35;;;;;;;3.67;2.00;;;19.30;44.30;;;;;;5002346;28;20078;-71
2021/06/01 07:26:03;;;;;;;3.03;1.70;;;19.50;44.50;;;;;;5006317;28;20516;-71
2021/06/01 07:28:30;;;;;;;2.67;1.70;;;21.00;42.90;;;;;;5004396;28;20073;-72
2021/06/01 07:31:00;;;;;;;2.35;1.75;;;21.80;39.60;;;;;;5022717;28;20057;-71
2021/06/01 07:33:27;;;;;;;1.80;1.45;;;21.10;39.60;;;;;;5006312;28;20142;-71
2021/06/01 07:35:54;;;;;;;3.08;1.70;;;20.50;40.60;;;;;;5007936;28;20073;-71
2021/06/01 07:38:21;;;;;;;2.38;1.70;;;19.90;41.50;;;;;;5000121;28;20629;-71
2021/06/01 07:40:49;;;;;;;2.20;1.55;;;19.80;42.00;;;;;;5010552;28;20041;-71
2021/06/01 07:43:16;;;;;;;6.28;1.90;;;19.80;42.20;;;;;;5040358;28;20046;-71
2021/06/01 07:45:43;;;;;;;4.25;1.60;;;19.80;42.40;;;;;;5011554;28;20377;-70
2021/06/01 07:48:11;;;;;;;2.85;1.35;;;19.90;41.30;;;;;;5008545;28;20212;-70
2021/06/01 07:50:38;;;;;;;2.58;1.42;;;20.00;41.40;;;;;;5025032;28;20132;-71
2021/06/01 07:53:04;;;;;;;3.40;1.63;;;19.90;41.30;;;;;;5009294;28;20100;-70
2021/06/01 07:55:32;;;;;;;2.05;1.50;;;19.80;41.50;;;;;;5004355;28;20056;-70
2021/06/01 07:57:59;;;;;;;7.03;1.58;;;19.80;41.70;;;;;;5009156;28;20066;-71
2021/06/01 08:00:27;;;;;;;3.17;1.58;;;19.90;41.40;;;;;;5010361;28;20085;-71
2021/06/01 08:02:54;;;;;;;1.98;1.50;;;19.90;41.10;;;;;;5006065;28;20077;-71
2021/06/01 08:05:22;;;;;;;6.28;1.55;;;20.00;41.10;;;;;;5007109;28;20069;-70
2021/06/01 08:07:50;;;;;;;2.60;1.52;;;20.00;40.50;;;;;;5007964;28;20145;-70
2021/06/01 08:10:21;;;;;;;1.60;1.50;;;20.00;40.20;;;;;;5009320;28;20129;-71
2021/06/01 08:12:49;;;;;;;2.10;1.63;;;20.30;40.00;;;;;;5010948;28;20156;-71
2021/06/01 08:15:20;;;;;;;4.20;1.90;;;20.30;39.80;;;;;;5007293;28;20074;-70
2021/06/01 08:17:50;;;;;;;1.95;1.60;;;20.30;40.00;;;;;;5009029;28;20096;-72
2021/06/01 08:20:29;;;;;;;2.20;1.80;;;20.20;40.10;;;;;;5008306;28;20050;-71
2021/06/01 08:22:56;;;;;;;4.07;1.42;;;20.10;40.70;;;;;;5010669;28;20092;-70
2021/06/01 08:25:23;;;;;;;2.60;1.60;;;20.10;40.40;;;;;;5011553;28;20049;-71
2021/06/01 08:27:50;;;;;;;6.82;1.60;;;20.20;40.80;;;;;;5008596;28;20490;-70
2021/06/01 08:30:18;;;;;;;3.22;1.50;;;20.40;40.20;;;;;;5012160;28;20050;-71
2021/06/01 08:32:45;;;;;;;3.67;1.30;;;20.60;39.60;;;;;;5006744;28;20055;-71
2021/06/01 08:35:12;;;;;;;5.47;1.58;;;20.70;38.60;;;;;;5004888;28;20065;-70
2021/06/01 08:37:40;;;;;;;7.95;2.10;;;20.60;39.20;;;;;;5008309;28;20144;-70
2021/06/01 08:40:08;;;;;;;6.03;2.00;;;20.70;38.70;;;;;;5009733;28;20128;-71
2021/06/01 08:42:38;;;;;;;11.25;2.10;;;20.70;38.80;;;;;;5009435;28;20084;-72
2021/06/01 08:45:06;;;;;;;2.75;1.60;;;20.60;38.80;;;;;;5036255;28;20077;-71
2021/06/01 08:47:33;;;;;;;1.77;1.55;;;20.70;38.20;;;;;;5008571;28;20081;-76
2021/06/01 08:50:04;;;;;;;1.70;1.60;;;20.70;37.80;;;;;;5008492;28;20042;-72
2021/06/01 08:52:31;;;;;;;3.38;1.70;;;20.70;37.90;;;;;;5008461;28;20088;-70
2021/06/01 08:54:58;;;;;;;3.47;1.85;;;20.70;38.30;;;;;;5005544;28;20129;-70
2021/06/01 08:57:26;;;;;;;2.22;1.45;;;20.80;38.20;;;;;;5010718;28;20116;-72
2021/06/01 08:59:53;;;;;;;5.25;1.58;;;20.80;38.10;;;;;;5007654;28;20164;-71
2021/06/01 09:02:24;;;;;;;1.75;1.38;;;20.70;37.60;;;;;;5008794;28;20533;-71
2021/06/01 09:04:56;;;;;;;2.47;1.40;;;20.80;38.00;;;;;;5010919;28;20054;-71
2021/06/01 09:21:46;;;;;;;4.95;1.70;;;21.00;36.30;;;;;;5011489;28;20046;-78
2021/06/01 09:24:15;;;;;;;4.85;1.50;;;21.10;36.60;;;;;;5008607;28;20065;-68
2021/06/01 09:29:36;;;;;;;2.17;1.60;;;21.10;37.80;;;;;;5000637;28;20131;-69
2021/06/01 09:32:16;;;;;;;2.28;1.52;;;21.20;37.60;;;;;;5001101;28;20099;-69
2021/06/01 09:34:49;;;;;;;7.47;1.60;;;21.30;38.00;;;;;;4997278;28;20165;-69
2021/06/01 09:37:33;;;;;;;4.85;1.42;;;21.30;36.00;;;;;;5000022;28;20057;-69
2021/06/01 09:40:19;;;;;;;2.30;1.20;;;21.20;36.50;;;;;;4999776;28;20061;-70
2021/06/01 09:42:49;;;;;;;3.95;1.70;;;21.30;37.20;;;;;;5023243;28;20050;-70
2021/06/01 09:45:22;;;;;;;2.65;1.40;;;21.40;36.60;;;;;;5002846;28;20049;-81
2021/06/01 09:47:57;;;;;;;4.00;1.60;;;21.60;37.00;;;;;;5001465;28;20171;-77
2021/06/01 09:50:37;;;;;;;10.10;2.85;;;21.50;36.40;;;;;;5001822;28;20061;-77
2021/06/01 09:53:21;;;;;;;6.20;1.77;;;21.50;36.80;;;;;;5021376;28;20092;-80
2021/06/01 09:55:49;;;;;;;3.03;1.63;;;21.60;37.10;;;;;;5021364;28;20054;-79
2021/06/01 09:58:34;;;;;;;1.70;1.60;;;21.70;36.60;;;;;;4999494;28;20046;-79
2021/06/01 10:01:06;;;;;;;5.25;1.60;;;21.60;36.30;;;;;;4999669;28;20054;-81
2021/06/01 10:03:45;;;;;;;2.20;1.70;;;21.80;37.00;;;;;;5002177;28;20061;-78
2021/06/01 10:06:13;;;;;;;2.15;1.80;;;21.80;36.00;;;;;;4992084;28;20207;-80
2021/06/01 10:08:45;;;;;;;1.75;1.65;;;21.80;36.30;;;;;;4998159;28;20050;-80
2021/06/01 10:11:13;;;;;;;2.03;1.50;;;21.70;36.90;;;;;;5027747;28;20084;-80
2021/06/01 10:13:40;;;;;;;4.78;1.58;;;21.80;37.10;;;;;;5001253;28;21409;-80
2021/06/01 10:16:16;;;;;;;3.80;1.40;;;22.20;36.80;;;;;;5002355;28;20756;-81
2021/06/01 10:18:45;;;;;;;3.33;1.50;;;22.20;36.30;;;;;;5003176;28;20168;-79
2021/06/01 10:21:19;;;;;;;7.10;1.90;;;22.00;35.80;;;;;;5002662;28;20485;-80
2021/06/01 10:23:50;;;;;;;1.90;1.35;;;21.90;36.90;;;;;;5000631;28;20050;-78
2021/06/01 10:26:17;;;;;;;1.90;1.65;;;22.00;36.60;;;;;;5001552;28;20137;-81
2021/06/01 10:28:47;;;;;;;3.10;1.85;;;21.80;37.10;;;;;;4995788;28;20062;-80
2021/06/01 10:31:36;;;;;;;2.22;1.63;;;22.10;37.70;;;;;;5020173;28;20053;-79
2021/06/01 10:34:08;;;;;;;1.65;1.40;;;22.10;37.30;;;;;;5000246;28;20061;-80
2021/06/01 10:50:48;;;;;;;5.53;1.55;;;22.30;35.50;;;;;;4999276;28;20224;-81
2021/06/01 10:53:20;;;;;;;4.35;1.75;;;22.40;36.50;;;;;;4997855;28;20096;-75
2021/06/01 10:58:20;;;;;;;5.45;1.55;;;22.60;36.40;;;;;;4998897;28;20162;-80
2021/06/01 11:03:17;;;;;;;5.63;1.70;;;22.50;36.40;;;;;;4999662;28;20528;-81
2021/06/01 11:05:57;;;;;;;9.68;4.43;;;22.60;36.40;;;;;;5000601;28;20141;-81
2021/06/01 11:08:42;;;;;;;14.77;6.95;;;22.40;36.20;;;;;;5000993;28;20856;-75
2021/06/01 11:11:39;;;;;;;6.72;3.22;;;22.40;36.40;;;;;;5025870;28;20073;-76
2021/06/01 11:14:31;;;;;;;4.57;1.92;;;22.50;36.00;;;;;;5005396;28;20081;-77
2021/06/01 11:17:00;;;;;;;9.18;4.60;;;22.60;36.50;;;;;;5003733;28;20607;-77
2021/06/01 11:19:59;;;;;;;12.65;7.03;;;22.80;35.70;;;;;;5000273;28;20058;-77
2021/06/01 11:33:31;;;;;;;31.90;17.63;;;22.80;37.40;;;;;;5005275;28;20136;-80
2021/06/01 11:36:13;;;;;;;23.80;11.82;;;22.70;37.10;;;;;;5004269;28;20180;-79
2021/06/01 11:44:19;;;;;;;8.57;5.10;;;23.00;36.30;;;;;;5003601;28;20109;-75
2021/06/01 11:46:57;;;;;;;2.80;1.77;;;23.10;36.70;;;;;;5003250;28;20073;-77
2021/06/01 11:52:10;;;;;;;19.48;10.02;;;23.20;36.80;;;;;;5003318;28;20136;-73
2021/06/01 11:54:49;;;;;;;2.80;2.20;;;23.40;37.50;;;;;;5003354;28;20054;-78
2021/06/01 11:57:26;;;;;;;13.23;6.68;;;23.40;35.90;;;;;;5002674;28;20050;-80
2021/06/01 12:18:41;;;;;;;1.60;1.45;;;26.20;34.00;;;;;;5001389;28;20057;-79
2021/06/01 12:21:33;;;;;;;2.37;1.70;;;27.70;31.60;;;;;;4999497;28;20062;-80
2021/06/01 12:24:06;;;;;;;3.45;1.60;;;32.40;27.60;;;;;;5003400;28;20054;-80
2021/06/01 12:32:22;;;;;;;3.78;1.58;;;35.40;24.80;;;;;;5003885;28;20077;-80
2021/06/01 13:07:26;;;;;;;3.20;1.35;;;30.80;26.50;;;;;;5006077;28;20053;-80
2021/06/01 13:40:01;;;;;;;2.85;1.55;;;28.50;28.20;;;;;;5003051;28;20060;-80
2021/06/01 13:48:16;;;;;;;1.98;1.50;;;28.30;29.30;;;;;;5001591;28;20417;-79
2021/06/01 13:51:06;;;;;;;1.98;1.60;;;27.60;29.20;;;;;;5002173;28;20150;-78
2021/06/01 13:56:24;;;;;;;2.95;1.70;;;27.80;29.00;;;;;;5003321;28;20069;-78
2021/06/01 13:59:03;;;;;;;2.08;1.70;;;27.50;29.30;;;;;;5002006;28;20070;-77
2021/06/01 15:49:39;;;;;;;3.13;1.70;;;25.40;30.30;;;;;;4993515;28;20089;-80
2021/06/01 16:33:41;;;;;;;12.15;6.32;;;25.30;32.40;;;;;;4979666;28;20767;-76
2021/06/01 16:42:08;;;;;;;5.55;3.88;;;25.20;31.90;;;;;;4993408;28;20086;-73
2021/06/01 17:13:02;;;;;;;14.48;5.18;;;24.90;33.80;;;;;;4986463;28;20137;-71
2021/06/01 17:15:29;;;;;;;7.43;1.90;;;24.90;35.30;;;;;;4992791;28;20133;-71
2021/06/01 17:18:07;;;;;;;2.90;2.28;;;24.80;32.20;;;;;;5011620;28;20056;-70
2021/06/01 17:37:04;;;;;;;4.38;1.55;;;24.60;32.90;;;;;;4992946;28;20054;-71
2021/06/01 17:39:31;;;;;;;4.53;1.45;;;24.60;32.30;;;;;;4991662;28;20130;-71
2021/06/01 17:42:00;;;;;;;4.25;2.20;;;24.60;31.80;;;;;;4993620;28;20084;-70
2021/06/01 17:44:28;;;;;;;5.00;1.77;;;24.50;32.80;;;;;;4991369;28;20054;-70
2021/06/01 17:47:16;;;;;;;3.70;2.28;;;24.50;32.00;;;;;;4991887;28;20054;-70
2021/06/01 17:49:47;;;;;;;4.97;1.50;;;24.40;32.30;;;;;;4988828;28;20192;-70
2021/06/01 17:52:28;;;;;;;3.53;1.70;;;24.40;32.00;;;;;;4991411;28;20568;-70
2021/06/01 17:54:57;;;;;;;3.20;1.90;;;24.40;33.40;;;;;;4991186;28;20162;-70
2021/06/01 17:57:27;;;;;;;3.38;2.00;;;24.30;33.50;;;;;;4992813;28;20527;-69
2021/06/01 17:59:55;;;;;;;2.90;1.80;;;24.40;32.40;;;;;;4992004;28;20090;-69
2021/06/01 18:02:23;;;;;;;2.78;1.95;;;24.30;32.40;;;;;;4992645;28;20061;-71
2021/06/01 18:04:52;;;;;;;2.80;1.60;;;24.30;33.20;;;;;;4990135;28;20429;-70
2021/06/01 18:07:33;;;;;;;3.13;1.30;;;24.20;32.60;;;;;;4990052;28;20061;-70
2021/06/01 18:36:23;;;;;;;2.78;1.92;;;23.90;33.50;;;;;;4993932;28;20108;-72
2021/06/01 19:12:08;;;;;;;2.88;1.70;;;23.30;35.20;;;;;;5005103;28;20104;-72
2021/06/01 19:50:29;;;;;;;4.88;2.08;;;22.60;36.30;;;;;;5010699;28;20132;-69
2021/06/01 19:52:57;;;;;;;2.35;2.00;;;22.60;36.80;;;;;;5010440;28;20135;-70
2021/06/01 19:55:31;;;;;;;4.50;1.90;;;22.60;36.80;;;;;;5005182;28;20077;-68
2021/06/01 19:57:58;;;;;;;6.95;2.65;;;22.50;36.60;;;;;;5009564;28;20445;-69
2021/06/01 20:00:25;;;;;;;8.38;2.58;;;22.40;36.90;;;;;;5007793;28;20084;-68
2021/06/01 20:02:52;;;;;;;5.35;2.65;;;22.40;37.10;;;;;;5009479;28;20080;-68
2021/06/01 20:05:39;;;;;;;4.97;3.00;;;22.30;37.10;;;;;;5011457;28;20053;-69
2021/06/01 20:08:10;;;;;;;9.52;5.30;;;22.20;37.40;;;;;;5008743;28;20218;-69
2021/06/01 20:10:37;;;;;;;4.88;2.92;;;22.20;37.80;;;;;;5009612;28;20100;-69
2021/06/01 20:13:04;;;;;;;8.48;4.53;;;22.10;37.70;;;;;;5009488;28;20752;-68
2021/06/01 20:15:36;;;;;;;4.32;2.42;;;22.10;38.10;;;;;;5009627;28;20485;-69
2021/06/01 20:18:06;;;;;;;5.40;2.67;;;22.00;38.10;;;;;;4998193;28;20097;-68
2021/06/01 20:20:37;;;;;;;3.35;2.60;;;21.90;38.50;;;;;;5047099;28;20064;-69
2021/06/01 20:23:09;;;;;;;5.28;3.47;;;21.80;38.50;;;;;;5009008;28;20509;-69
2021/06/01 20:25:48;;;;;;;5.60;3.17;;;21.80;38.80;;;;;;5008092;28;20054;-68
2021/06/01 20:28:35;;;;;;;5.20;2.80;;;21.70;39.00;;;;;;5009153;28;20130;-69
2021/06/01 20:31:05;;;;;;;4.10;2.45;;;21.70;39.20;;;;;;5009005;28;20140;-68